Cosco Nagoya — 3ESJ8 — position and weather

sailwx.info

Track history (hours):
 
Tides and Currents Weather Stations Pressure Air Temp Water Temp Dewpoint Dewpoint Depression Visibility Wind Speed Wind Dir Waves Ship Positions

Cosco Nagoya

Last reported at 2015-Jun-26 08:03 UTC. Time now 2015-Jul-02 08:09 UTC.
Position N 29°54' E 122°55'.

Length 260 m; draft 12 m.

Type: Cargo ship. MMSI: 370320000.

Date/timePositionNaut miles runAvg speedWind from/ knotsBaromVisibWave heightAir tempDewpointWater temp
2015-Jun-26 08:03N 29°54' E 122°55'917.3
2015-Jun-26 07:33N 29°49' E 122°47'1716.6
2015-Jun-26 06:34N 29°40' E 122°32'1514.8
2015-Jun-26 05:33N 29°47' E 122°16'1212.2
2015-Jun-26 04:33N 29°55' E 122°06'3 1.6
2015-Jun-26 02:27N 29°53' E 122°03'0 0.0
2015-Jun-26 01:28N 29°53' E 122°03'0 0.0
2015-Jun-26 00:33N 29°53' E 122°03'0 0.0
2015-Jun-25 22:27N 29°53' E 122°03'0 0.0
2015-Jun-25 18:03N 29°53' E 122°03'0 0.0
2015-Jun-25 17:15N 29°53' E 122°03'0 0.0
2015-Jun-25 16:33N 29°53' E 122°03'0 0.0
2015-Jun-25 15:27N 29°53' E 122°03'1 0.7
2015-Jun-25 14:33N 29°54' E 122°03'6 6.4
2015-Jun-25 13:33N 29°54' E 122°11'1211.6
2015-Jun-25 12:33N 29°45' E 122°19'8 5.9
2015-Jun-25 11:09N 29°44' E 122°28'0 0.1
2015-Jun-25 10:33N 29°44' E 122°28'0 0.0
2015-Jun-25 02:15N 29°44' E 122°28'0 0.1
2015-Jun-25 00:21N 29°44' E 122°28'0 0.1
2015-Jun-24 21:21N 29°44' E 122°28'0 0.1
2015-Jun-24 18:33N 29°44' E 122°28'0 0.0
2015-Jun-24 17:33N 29°44' E 122°28'0 0.1
2015-Jun-24 16:33N 29°44' E 122°28'0 0.1
2015-Jun-24 13:21N 29°44' E 122°28'0 0.0
2015-Jun-24 11:33N 29°44' E 122°28'1 1.2
2015-Jun-24 10:33N 29°45' E 122°29'7 7.0
2015-Jun-24 09:33N 29°49' E 122°36'1311.0
2015-Jun-24 08:20N 29°58' E 122°48'25 8.9
2015-Jun-24 05:30N 30°22' E 122°53'1313.0
2015-Jun-24 04:30N 30°29' E 122°40'1211.2
2015-Jun-24 03:27N 30°31' E 122°27'1010.9
2015-Jun-24 02:32N 30°33' E 122°15'1110.8
2015-Jun-24 01:31N 30°37' E 122°03'0 0.2
2015-Jun-24 00:28N 30°37' E 122°04'0 0.0
2015-Jun-23 23:31N 30°37' E 122°04'0 0.0
2015-Jun-23 22:31N 30°37' E 122°04'0 0.1
2015-Jun-23 21:31N 30°37' E 122°04'0 0.0
2015-Jun-23 20:28N 30°37' E 122°04'0 0.0
2015-Jun-23 19:31N 30°37' E 122°04'0 0.0
2015-Jun-23 19:04N 30°37' E 122°04'  
Track history (hours):
 
Tides and Currents Weather Stations Pressure Air Temp Water Temp Dewpoint Dewpoint Depression Visibility Wind Speed Wind Dir Waves Ship Positions

Cosco Nagoya

Last reported at 2015-Jun-26 08:03 UTC. Time now 2015-Jul-02 08:09 UTC.
Position N 29°54' E 122°55'.

Length 260 m; draft 12 m.

Type: Cargo ship. MMSI: 370320000.

Date/timePositionNaut miles runAvg speedWind from/ knotsBaromVisibWave heightAir tempDewpointWater temp
2015-Jun-26 08:03N 29°54' E 122°55'917.3
2015-Jun-26 07:33N 29°49' E 122°47'1716.6
2015-Jun-26 06:34N 29°40' E 122°32'1514.8
2015-Jun-26 05:33N 29°47' E 122°16'1212.2
2015-Jun-26 04:33N 29°55' E 122°06'3 1.6
2015-Jun-26 02:27N 29°53' E 122°03'0 0.0
2015-Jun-26 01:28N 29°53' E 122°03'0 0.0
2015-Jun-26 00:33N 29°53' E 122°03'0 0.0
2015-Jun-25 22:27N 29°53' E 122°03'0 0.0
2015-Jun-25 18:03N 29°53' E 122°03'0 0.0
2015-Jun-25 17:15N 29°53' E 122°03'0 0.0
2015-Jun-25 16:33N 29°53' E 122°03'0 0.0
2015-Jun-25 15:27N 29°53' E 122°03'1 0.7
2015-Jun-25 14:33N 29°54' E 122°03'6 6.4
2015-Jun-25 13:33N 29°54' E 122°11'1211.6
2015-Jun-25 12:33N 29°45' E 122°19'8 5.9
2015-Jun-25 11:09N 29°44' E 122°28'0 0.1
2015-Jun-25 10:33N 29°44' E 122°28'0 0.0
2015-Jun-25 02:15N 29°44' E 122°28'0 0.1
2015-Jun-25 00:21N 29°44' E 122°28'0 0.1
2015-Jun-24 21:21N 29°44' E 122°28'0 0.1
2015-Jun-24 18:33N 29°44' E 122°28'0 0.0
2015-Jun-24 17:33N 29°44' E 122°28'0 0.1
2015-Jun-24 16:33N 29°44' E 122°28'0 0.1
2015-Jun-24 13:21N 29°44' E 122°28'0 0.0
2015-Jun-24 11:33N 29°44' E 122°28'1 1.2
2015-Jun-24 10:33N 29°45' E 122°29'7 7.0
2015-Jun-24 09:33N 29°49' E 122°36'1311.0
2015-Jun-24 08:20N 29°58' E 122°48'25 8.9
2015-Jun-24 05:30N 30°22' E 122°53'1313.0
2015-Jun-24 04:30N 30°29' E 122°40'1211.2
2015-Jun-24 03:27N 30°31' E 122°27'1010.9
2015-Jun-24 02:32N 30°33' E 122°15'1110.8
2015-Jun-24 01:31N 30°37' E 122°03'0 0.2
2015-Jun-24 00:28N 30°37' E 122°04'0 0.0
2015-Jun-23 23:31N 30°37' E 122°04'0 0.0
2015-Jun-23 22:31N 30°37' E 122°04'0 0.1
2015-Jun-23 21:31N 30°37' E 122°04'0 0.0
2015-Jun-23 20:28N 30°37' E 122°04'0 0.0
2015-Jun-23 19:31N 30°37' E 122°04'0 0.0
2015-Jun-23 19:04N 30°37' E 122°04'  

Dump ship's entire track history